HOURLY OBS INDEX

082

Northeast - Lower

HUNTERS HILL

Site: 082139
Alt: 981.0m
32km W of CORRYONG


  Time     Wind        Temp  DP   Baro     Rain since   Rain past  Vis(m), Cloud(base in m), Weather
  local        km/h                         9am  last   hr   10m    
Mon 08:00    E  7/ 15   4.8  3.5  ------   15.8   0.0   0.0   0.0   ----- 
Mon 08:30  SSE  9/ 17   4.8  3.9  ------   15.8   0.0   0.0   0.0   ----- 
Mon 09:00   SE  9/ 17   5.0  3.8  ------   15.8   0.0   0.0   0.0   ----- 
Mon 09:30  ESE  7/ 13   5.3  4.0  ------    0.0   0.0   0.0   0.0   ----- 
Mon 10:00  ESE  4/  7   5.4  4.4  ------    0.0   0.0   0.0   0.0   ----- 
Mon 10:30   SE  6/ 13   6.6  5.4  ------    0.0   0.0   0.0   0.0   ----- 
Mon 11:00  SSE  6/ 15   6.9  5.5  ------    0.0   0.0   0.0   0.0   ----- 
Mon 11:30   SE  6/ 15   7.4  5.7  ------    0.0   0.0   0.0   0.0   ----- 
Mon 12:00   SE  6/ 13   7.2  5.3  ------    0.0   0.0   0.0   0.0   ----- 
Mon 12:30  ESE  7/ 17   7.0  5.2  ------    0.0   0.0   0.0   0.0   ----- 
Mon 13:00  ESE  7/ 15   7.4  5.4  ------    0.0   0.0   0.0   0.0   ----- 

WANGARATTA AERO

Site: 082138
Alt: 152.6m
7km S of WANGARATTA


  Time     Wind        Temp  DP   Baro     Rain since   Rain past  Vis(m), Cloud(base in m), Weather
  local        km/h                         9am  last   hr   10m    
Mon 08:00    C  0/  0   5.9  5.9  1020.4    6.0   0.0   0.0   0.0   10000 
Mon 08:30    C  0/  0   6.3  6.3  1020.5    6.0   0.0   0.0   0.0   10000 
Mon 09:00    C  0/  0   6.6  6.6  1020.5    6.0   0.0   0.0   0.0   10000 
Mon 09:30    E  7/  9   8.0  8.0  1020.8    0.0   0.0   0.0   0.0   10000 
Mon 10:00  SSE  7/  9   9.4  9.4  1020.8    0.0   0.0   0.0   0.0   10000 
Mon 10:30    E  6/  7  10.1 10.0  1021.0    0.0   0.0   0.0   0.0   10000 
Mon 11:00  ESE  6/  9  11.1 10.2  1021.1    0.0   0.0   0.0   0.0   10000 
Mon 11:30  SSW 13/ 22  12.8  8.7  1020.8    0.0   0.0   0.0   0.0   10000 
Mon 12:00    S 19/ 26  13.5  7.1  1020.6    0.0   0.0   0.0   0.0   10000 
Mon 12:30    S 24/ 30  13.6  6.9  1020.4    0.0   0.0   0.0   0.0   10000 
Mon 13:00    S 26/ 37  14.2  7.0  1020.3    0.0   0.0   0.0   0.0   10000